createdAt,value
2023-11-15T01:59:01.824Z,9.48
2023-11-15T02:29:21.295Z,9.39
2023-11-15T02:30:20.306Z,9.43
2023-11-15T02:43:21.090Z,9.48
2023-11-15T02:44:22.823Z,9.49
2023-11-15T02:45:21.982Z,9.56
2023-11-15T02:46:30.941Z,9.63
2023-11-15T02:47:22.114Z,9.68
2023-11-15T02:48:22.268Z,9.76
2023-11-15T02:53:12.504Z,9.78
2023-11-15T02:54:13.529Z,9.76
2023-11-15T03:25:11.554Z,9.31
2023-11-15T04:24:09.921Z,9.31
2023-11-15T04:25:10.836Z,9.34
2023-11-15T04:26:10.923Z,9.38
2023-11-15T04:27:10.938Z,9.42
2023-11-15T04:28:11.036Z,9.49
2023-11-15T04:29:11.211Z,9.56
2023-11-15T04:30:11.328Z,9.58
2023-11-15T04:31:11.347Z,9.64
2023-11-15T04:32:11.360Z,9.70
2023-11-15T04:33:13.541Z,9.73
2023-11-15T04:34:11.555Z,9.76
2023-11-15T04:35:13.489Z,9.79
2023-11-15T04:36:11.709Z,9.83
2023-11-15T04:37:11.844Z,9.86
2023-11-15T04:38:11.874Z,9.88
2023-11-15T04:39:12.381Z,9.89
2023-11-15T04:40:11.971Z,9.93
2023-11-15T04:41:12.114Z,9.96
2023-11-15T04:42:12.132Z,9.97
2023-11-15T04:43:12.213Z,9.99
2023-11-15T04:44:12.431Z,9.97
2023-11-15T04:45:12.402Z,9.97
2023-11-15T04:46:12.560Z,10.00
2023-11-15T04:47:12.527Z,10.00
2023-11-15T04:48:12.760Z,10.01
2023-11-15T04:49:12.761Z,10.01
2023-11-15T04:50:12.817Z,10.01
2023-11-15T04:51:12.911Z,10.01
2023-11-15T04:52:12.985Z,10.01
2023-11-15T04:53:13.050Z,10.04
2023-11-15T04:54:13.098Z,10.04
2023-11-15T04:55:13.232Z,10.06
2023-11-15T04:56:13.281Z,10.06
2023-11-15T04:57:13.414Z,10.06
2023-11-15T04:58:13.442Z,10.07
2023-11-15T04:59:13.548Z,10.06
2023-11-15T05:00:13.640Z,10.06
2023-11-15T05:01:13.780Z,10.07
2023-11-15T05:02:13.814Z,10.07
2023-11-15T05:03:14.066Z,10.07
2023-11-15T05:04:14.036Z,10.06
2023-11-15T05:05:14.054Z,10.07
2023-11-15T05:06:14.149Z,10.06
2023-11-15T05:07:14.236Z,10.07
2023-11-15T05:08:14.292Z,10.07
2023-11-15T05:09:14.377Z,10.07
2023-11-15T05:10:14.499Z,10.06
2023-11-15T05:11:14.561Z,10.06
2023-11-15T05:12:14.630Z,10.06
2023-11-15T05:13:14.683Z,10.07
2023-11-15T05:14:14.761Z,10.06
2023-11-15T05:15:14.851Z,10.04
2023-11-15T05:16:14.915Z,10.07
2023-11-15T05:17:14.974Z,10.04
2023-11-15T05:18:15.154Z,10.04
2023-11-15T05:19:15.145Z,10.04
2023-11-15T05:20:15.231Z,10.04
2023-11-15T05:21:15.280Z,10.06
2023-11-15T05:22:15.352Z,10.03
2023-11-15T05:23:15.481Z,10.03
2023-11-15T05:24:15.591Z,10.01
2023-11-15T05:25:15.664Z,10.01
2023-11-15T05:26:15.716Z,10.01
2023-11-15T05:27:15.822Z,10.01
2023-11-15T05:28:15.898Z,10.00
2023-11-15T05:29:15.967Z,10.01
2023-11-15T05:30:16.025Z,10.01
2023-11-15T05:31:16.141Z,10.00
2023-11-15T05:33:53.066Z,9.97
2023-11-15T05:34:54.080Z,9.94
2023-11-15T05:35:54.211Z,9.94
2023-11-15T05:36:54.133Z,9.94
2023-11-15T05:37:54.232Z,9.96
2023-11-15T05:38:54.382Z,9.94
2023-11-15T05:39:54.451Z,9.94
2023-11-15T05:40:54.544Z,9.94
2023-11-15T05:41:54.705Z,9.96
2023-11-15T05:42:54.598Z,9.91
2023-11-15T05:43:54.849Z,9.91
2023-11-15T05:44:54.831Z,9.89
2023-11-15T05:45:54.951Z,9.86
2023-11-15T05:46:54.939Z,9.85
2023-11-15T05:47:55.041Z,9.83
2023-11-15T05:48:55.816Z,9.81
2023-11-15T05:49:55.182Z,9.81
2023-11-15T05:50:55.398Z,9.78
2023-11-15T05:51:55.320Z,9.76
2023-11-15T05:52:55.412Z,9.75
2023-11-15T05:53:55.549Z,9.73
2023-11-15T05:54:55.670Z,9.73
2023-11-15T05:55:55.715Z,9.73
2023-11-15T06:15:58.408Z,8.83
2023-11-15T06:38:20.578Z,8.83
2023-11-15T06:39:21.291Z,8.86
2023-11-15T06:40:21.508Z,8.90
2023-11-15T06:41:21.447Z,8.97
2023-11-15T06:42:21.489Z,9.02
2023-11-15T06:43:21.601Z,9.09
2023-11-15T06:44:21.660Z,9.15
2023-11-15T06:45:21.740Z,9.23
2023-11-15T06:46:21.884Z,9.25
2023-11-15T06:47:21.946Z,9.31
2023-11-15T06:48:22.101Z,9.35
2023-11-15T06:49:22.936Z,9.39
2023-11-15T06:50:22.173Z,9.43
2023-11-15T06:51:22.288Z,9.46
2023-11-15T06:52:22.333Z,9.49
2023-11-15T06:53:22.430Z,9.50
2023-11-15T06:54:22.509Z,9.52
2023-11-15T06:55:22.638Z,9.56
2023-11-15T06:56:22.722Z,9.57
2023-11-15T06:57:22.830Z,9.60
2023-11-15T06:58:22.909Z,9.61
2023-11-15T06:59:23.026Z,9.64
2023-11-15T07:00:23.039Z,9.66
2023-11-15T07:01:23.161Z,9.70
2023-11-15T07:02:23.213Z,9.70
2023-11-15T07:03:23.925Z,9.71
2023-11-15T07:35:11.358Z,9.10
2023-11-15T07:36:10.450Z,9.15
2023-11-15T07:37:10.177Z,9.16
2023-11-15T07:38:10.320Z,9.24
2023-11-15T07:50:43.384Z,9.23
2023-11-15T07:51:44.428Z,9.21
2023-11-15T07:52:44.572Z,9.24
2023-11-15T07:53:44.518Z,9.30
2023-11-15T07:54:44.550Z,9.34
2023-11-15T07:55:44.632Z,9.39
2023-11-15T07:56:44.774Z,9.43
2023-11-15T07:57:44.824Z,9.49
2023-11-15T07:58:44.886Z,9.53
2023-11-15T07:59:45.005Z,9.58
2023-11-15T08:00:45.083Z,9.63
2023-11-15T08:01:47.946Z,9.66
2023-11-15T08:02:45.347Z,9.66
2023-11-15T08:03:45.497Z,9.70
2023-11-15T08:04:45.425Z,9.71
2023-11-15T08:05:45.487Z,9.73
2023-11-15T08:06:45.545Z,9.76
2023-11-15T08:07:45.632Z,9.78
2023-11-15T08:08:45.832Z,9.82
2023-11-15T08:09:45.795Z,9.82
2023-11-15T08:10:45.888Z,9.83
2023-11-15T08:11:46.000Z,9.83
2023-11-15T08:12:46.067Z,9.85
2023-11-15T08:13:46.135Z,9.86
2023-11-15T08:14:46.287Z,9.88
2023-11-15T08:15:46.317Z,9.89
2023-11-15T08:16:46.389Z,9.91
2023-11-15T08:17:46.497Z,9.91
2023-11-15T08:18:46.638Z,9.94
2023-11-15T08:19:49.540Z,9.96
2023-11-15T08:20:46.700Z,9.97
2023-11-15T08:21:46.713Z,9.97
2023-11-15T08:22:46.834Z,9.99
2023-11-15T08:23:46.875Z,10.01
2023-11-15T08:24:46.939Z,10.01
2023-11-15T08:25:47.025Z,10.04
2023-11-15T08:26:47.127Z,10.03
2023-11-15T08:27:47.209Z,10.06
2023-11-15T08:28:49.107Z,10.06
2023-11-15T08:29:47.428Z,10.09
2023-11-15T08:30:47.482Z,10.07
2023-11-15T08:31:47.776Z,10.09
2023-11-15T08:32:47.728Z,10.12
2023-11-15T08:33:47.770Z,10.12
2023-11-15T08:34:47.874Z,10.12
2023-11-15T08:35:47.947Z,10.17
2023-11-15T08:42:24.209Z,9.86
2023-11-15T08:43:34.342Z,9.86
2023-11-15T08:46:05.106Z,9.81
2023-11-15T08:50:07.974Z,9.78
2023-11-15T08:50:48.236Z,9.79
2023-11-15T08:51:48.155Z,9.82
2023-11-15T08:52:48.299Z,9.82
2023-11-15T08:53:48.292Z,9.85
2023-11-15T08:54:48.312Z,9.86
2023-11-15T08:55:48.395Z,9.91
2023-11-15T08:56:48.632Z,9.94
2023-11-15T08:57:48.593Z,9.96
2023-11-15T08:58:48.645Z,9.99
2023-11-15T08:59:48.912Z,10.00
2023-11-15T09:00:48.812Z,10.03
2023-11-15T09:01:48.937Z,10.03
2023-11-15T09:02:49.442Z,10.04
2023-11-15T09:03:49.177Z,10.06
2023-11-15T09:04:49.172Z,10.07
2023-11-15T09:05:49.253Z,10.07
2023-11-15T09:06:50.008Z,10.12
2023-11-15T09:07:49.441Z,10.12
2023-11-15T09:08:49.457Z,10.17
2023-11-15T09:09:49.567Z,10.15
2023-11-15T09:10:49.620Z,10.17
2023-11-15T09:11:49.757Z,10.18
2023-11-15T09:12:49.825Z,10.19
2023-11-15T09:13:49.886Z,10.19
2023-11-15T09:14:50.014Z,10.22
2023-11-15T09:15:50.037Z,10.21
2023-11-15T09:16:50.135Z,10.22
2023-11-15T09:17:50.334Z,10.22
2023-11-15T09:18:50.387Z,10.26
2023-11-15T09:19:50.414Z,10.26
2023-11-15T09:20:50.462Z,10.25
2023-11-15T09:21:50.807Z,10.26
2023-11-15T09:22:50.966Z,10.28
2023-11-15T09:23:50.844Z,10.28
2023-11-15T09:24:54.962Z,10.28
2023-11-15T09:25:50.864Z,10.26
2023-11-15T09:26:50.996Z,10.30
2023-11-15T09:27:51.071Z,10.28
2023-11-15T09:28:51.121Z,10.30
2023-11-15T09:29:51.246Z,10.30
2023-11-15T09:30:51.420Z,10.32
2023-11-15T09:31:51.505Z,10.33
2023-11-15T09:32:52.005Z,10.34
2023-11-15T09:33:51.658Z,10.34
2023-11-15T09:34:51.641Z,10.36
2023-11-15T09:42:11.808Z,10.15
2023-11-15T09:43:10.960Z,10.14
2023-11-15T09:44:11.162Z,10.15
2023-11-15T09:45:10.790Z,10.15
2023-11-15T09:46:10.914Z,10.19
2023-11-15T09:47:10.976Z,10.22
2023-11-15T09:48:11.266Z,10.25
2023-11-15T09:49:11.345Z,10.26
2023-11-15T09:50:11.193Z,10.30
2023-11-15T09:51:11.313Z,10.30
2023-11-15T09:52:12.080Z,10.32
2023-11-15T09:53:11.478Z,10.33
2023-11-15T09:54:17.547Z,10.32
2023-11-15T09:55:11.642Z,10.33
2023-11-15T09:56:11.771Z,10.34
2023-11-15T09:57:11.784Z,10.33
2023-11-15T09:58:11.877Z,10.33
2023-11-15T09:59:11.927Z,10.33
2023-11-15T10:00:16.393Z,10.34
2023-11-15T10:01:12.200Z,10.34
2023-11-15T10:02:12.244Z,10.34
2023-11-15T10:03:12.357Z,10.34
2023-11-15T10:04:12.367Z,10.37
2023-11-15T10:05:13.374Z,10.37
2023-11-15T10:06:12.543Z,10.36
2023-11-15T10:07:12.605Z,10.37
2023-11-15T10:08:13.019Z,10.37
2023-11-15T10:09:12.750Z,10.37
2023-11-15T10:10:12.827Z,10.37
2023-11-15T10:11:12.912Z,10.37
2023-11-15T10:12:13.039Z,10.37
2023-11-15T10:13:13.133Z,10.40
2023-11-15T10:14:13.177Z,10.40
2023-11-15T10:15:13.272Z,10.42
2023-11-15T10:16:13.480Z,10.42
2023-11-15T10:17:13.401Z,10.42
2023-11-15T10:18:13.553Z,10.43
2023-11-15T10:19:13.838Z,10.42
2023-11-15T10:20:13.649Z,10.40
2023-11-15T10:21:13.764Z,10.40
2023-11-15T10:22:13.815Z,10.40
2023-11-15T10:23:13.914Z,10.42
2023-11-15T10:24:14.202Z,10.42
2023-11-15T10:25:14.046Z,10.40
2023-11-15T10:26:14.197Z,10.40
2023-11-15T10:27:14.260Z,10.42
2023-11-15T10:28:14.334Z,10.42
2023-11-15T10:29:14.439Z,10.42
2023-11-15T10:30:14.732Z,10.42
2023-11-15T10:31:14.628Z,10.43
2023-11-15T10:32:14.695Z,10.44
2023-11-15T10:33:14.873Z,10.44
2023-11-15T10:34:18.667Z,10.46
2023-11-15T10:35:14.923Z,10.44
2023-11-15T10:36:15.069Z,10.44
2023-11-15T10:37:15.081Z,10.44
2023-11-15T10:38:15.199Z,10.44
2023-11-15T10:39:15.319Z,10.43
2023-11-15T10:40:15.312Z,10.43
2023-11-15T10:41:15.427Z,10.44
2023-11-15T10:42:15.476Z,10.43
2023-11-15T10:43:15.632Z,10.43
2023-11-15T10:44:15.662Z,10.43
2023-11-15T10:45:15.728Z,10.43
2023-11-15T10:46:15.830Z,10.43
2023-11-15T10:47:15.917Z,10.43
2023-11-15T10:48:16.033Z,10.43
2023-11-15T10:49:16.051Z,10.43
2023-11-15T10:50:16.139Z,10.42
2023-11-15T10:51:16.247Z,10.40
2023-11-15T10:52:16.337Z,10.40
2023-11-15T10:53:16.455Z,10.42
2023-11-15T10:54:16.517Z,10.42
2023-11-15T10:55:16.580Z,10.42
2023-11-15T10:56:16.652Z,10.40
2023-11-15T10:57:16.756Z,10.39
2023-11-15T10:58:16.882Z,10.37
2023-11-15T10:59:16.949Z,10.37
2023-11-15T11:03:05.145Z,10.22
2023-11-15T11:04:09.247Z,10.18
2023-11-15T11:05:06.183Z,10.17
2023-11-15T11:06:06.259Z,10.15
2023-11-15T11:07:06.317Z,10.15
2023-11-15T11:08:06.422Z,10.18
2023-11-15T11:09:17.038Z,10.19
2023-11-15T11:10:06.503Z,10.19
2023-11-15T11:11:06.591Z,10.19
2023-11-15T11:12:06.754Z,10.21
2023-11-15T11:13:06.757Z,10.21
2023-11-15T11:14:06.828Z,10.21
2023-11-15T11:15:06.972Z,10.22
2023-11-15T11:16:07.005Z,10.21
2023-11-15T11:17:07.084Z,10.19
2023-11-15T11:18:07.272Z,10.21
2023-11-15T11:19:07.263Z,10.19
2023-11-15T11:20:07.406Z,10.19
2023-11-15T11:21:07.391Z,10.19
2023-11-15T11:22:07.604Z,10.19
2023-11-15T11:23:07.548Z,10.21
2023-11-15T11:24:07.678Z,10.24
2023-11-15T11:25:07.753Z,10.34
2023-11-15T11:26:07.770Z,10.43
2023-11-15T11:27:07.883Z,10.51
2023-11-15T11:28:07.933Z,10.56
2023-11-15T11:29:08.065Z,10.66
2023-11-15T11:30:08.166Z,10.70
2023-11-15T11:31:08.195Z,10.65
2023-11-15T11:32:08.260Z,10.66
2023-11-15T11:33:08.473Z,10.68
2023-11-15T11:34:08.400Z,10.71
2023-11-15T11:35:08.468Z,10.74
2023-11-15T11:36:08.549Z,10.76
2023-11-15T11:37:09.582Z,10.77
2023-11-15T11:38:08.756Z,10.80
2023-11-15T11:39:08.799Z,10.81
2023-11-15T11:40:08.870Z,10.80
2023-11-15T11:41:08.979Z,10.84
2023-11-15T11:42:09.092Z,10.86
2023-11-15T11:43:09.128Z,10.86
2023-11-15T11:44:09.189Z,10.88
2023-11-15T11:45:09.333Z,10.86
2023-11-15T11:46:09.401Z,10.88
2023-11-15T11:47:09.406Z,10.86
2023-11-15T11:48:09.599Z,10.88
2023-11-15T11:49:09.624Z,10.86
2023-11-15T11:50:09.689Z,10.84
2023-11-15T11:51:09.803Z,10.83
2023-11-15T11:52:09.815Z,10.81
2023-11-15T11:53:09.922Z,10.81
2023-11-15T11:54:10.024Z,10.81
2023-11-15T11:55:10.114Z,10.81
2023-11-15T11:56:10.163Z,10.83
2023-11-15T11:57:10.257Z,10.86
2023-11-15T11:58:10.274Z,10.84
2023-11-15T11:59:10.403Z,10.86
2023-11-15T12:00:10.479Z,10.83
2023-11-15T12:01:10.515Z,10.81
2023-11-15T12:02:10.613Z,10.81
2023-11-15T12:03:17.854Z,10.80
2023-11-15T12:04:10.923Z,10.80
2023-11-15T12:05:10.826Z,10.80
2023-11-15T12:06:11.093Z,10.78
2023-11-15T12:07:10.986Z,10.78
2023-11-15T12:08:11.066Z,10.74
2023-11-15T12:09:11.699Z,10.76
2023-11-15T12:10:11.240Z,10.73
2023-11-15T12:11:14.124Z,10.74
2023-11-15T12:12:11.465Z,10.71
2023-11-15T12:13:12.238Z,10.70
2023-11-15T12:14:11.575Z,10.65
2023-11-15T12:15:11.694Z,10.65
2023-11-15T12:16:11.739Z,10.62
2023-11-15T12:17:11.837Z,10.59
2023-11-15T12:18:11.947Z,10.56
2023-11-15T12:19:11.972Z,10.53
2023-11-15T12:20:12.165Z,10.51
2023-11-15T12:21:12.163Z,10.46
2023-11-15T12:22:12.226Z,10.42
2023-11-15T12:23:12.317Z,10.39
2023-11-15T12:24:12.427Z,10.39
2023-11-15T12:25:12.507Z,10.36
2023-11-15T12:26:12.551Z,10.36
2023-11-15T12:27:12.664Z,10.34
2023-11-15T12:28:12.754Z,10.33
2023-11-15T12:29:12.809Z,10.32
2023-11-15T12:30:12.953Z,10.32
2023-11-15T12:31:13.062Z,10.30
2023-11-15T12:32:13.060Z,10.30
2023-11-15T12:33:13.231Z,10.26
2023-11-15T12:34:13.535Z,10.28
2023-11-15T12:35:13.368Z,10.26
2023-11-15T12:36:13.505Z,10.25
2023-11-15T12:37:13.477Z,10.26
2023-11-15T12:38:14.233Z,10.26
2023-11-15T12:39:13.684Z,10.26
2023-11-15T12:40:13.709Z,10.28
2023-11-15T12:41:13.782Z,10.28
2023-11-15T12:42:13.931Z,10.26
2023-11-15T12:43:13.972Z,10.25
2023-11-15T12:44:14.029Z,10.24
2023-11-15T12:45:14.167Z,10.24
2023-11-15T12:46:14.237Z,10.24
2023-11-15T12:47:14.304Z,10.22
2023-11-15T12:48:14.445Z,10.22
2023-11-15T12:49:14.485Z,10.22
2023-11-15T12:50:14.617Z,10.24
2023-11-15T12:51:14.664Z,10.24
2023-11-15T12:52:14.749Z,10.26
2023-11-15T12:53:14.860Z,10.25
2023-11-15T12:54:14.961Z,10.26
2023-11-15T12:55:16.351Z,10.26
2023-11-15T12:56:15.089Z,10.28
2023-11-15T12:57:15.237Z,10.26
2023-11-15T13:04:02.525Z,10.04
2023-11-15T13:05:03.440Z,10.04
2023-11-15T13:06:04.398Z,10.03
2023-11-15T13:07:03.592Z,10.04
2023-11-15T13:08:03.697Z,10.07
2023-11-15T13:09:03.920Z,10.10
2023-11-15T13:10:03.882Z,10.14
2023-11-15T13:11:03.953Z,10.14
2023-11-15T13:12:04.023Z,10.14
2023-11-15T13:13:04.105Z,10.18
2023-11-15T13:14:04.177Z,10.18
2023-11-15T13:15:04.336Z,10.19
2023-11-15T13:16:04.381Z,10.19
2023-11-15T13:17:04.489Z,10.19
2023-11-15T13:18:04.559Z,10.21
2023-11-15T13:19:04.595Z,10.22
2023-11-15T13:20:05.364Z,10.24
2023-11-15T13:21:04.769Z,10.25
2023-11-15T13:22:04.808Z,10.26
2023-11-15T13:23:04.889Z,10.28
2023-11-15T13:24:04.962Z,10.32
2023-11-15T13:25:05.092Z,10.30
2023-11-15T13:26:05.149Z,10.33
2023-11-15T13:27:05.292Z,10.33
2023-11-15T13:28:05.289Z,10.36
2023-11-15T13:29:05.331Z,10.37
2023-11-15T13:30:05.463Z,10.37
2023-11-15T13:31:05.605Z,10.36
2023-11-15T13:32:06.268Z,10.36
2023-11-15T13:35:51.786Z,10.28
2023-11-15T13:36:53.593Z,10.25
2023-11-15T13:37:53.260Z,10.24
2023-11-15T13:38:52.973Z,10.24
2023-11-15T13:39:53.002Z,10.26
2023-11-15T13:40:53.282Z,10.30
2023-11-15T13:41:53.235Z,10.33
2023-11-15T13:42:53.265Z,10.34
2023-11-15T13:47:02.402Z,10.26
2023-11-15T13:48:03.479Z,10.22
2023-11-15T13:49:03.465Z,10.21
2023-11-15T13:50:03.574Z,10.19
2023-11-15T13:51:04.643Z,10.22
2023-11-15T13:52:03.763Z,10.25
2023-11-15T13:53:03.771Z,10.25
2023-11-15T13:54:03.996Z,10.25
2023-11-15T13:55:03.947Z,10.25
2023-11-15T13:56:04.094Z,10.25
2023-11-15T13:57:04.188Z,10.26
2023-11-15T13:58:04.249Z,10.25
2023-11-15T13:59:04.299Z,10.25
2023-11-15T14:00:06.172Z,10.25
2023-11-15T14:01:04.509Z,10.26
2023-11-15T14:02:04.634Z,10.25
2023-11-15T14:03:04.713Z,10.26
2023-11-15T14:04:04.803Z,10.25
2023-11-15T14:05:04.796Z,10.24
2023-11-15T14:06:05.022Z,10.24
2023-11-15T14:07:05.038Z,10.22
2023-11-15T14:08:05.052Z,10.19
2023-11-15T14:09:05.165Z,10.21
2023-11-15T14:10:05.215Z,10.21
2023-11-15T14:11:05.352Z,10.19
2023-11-15T14:12:05.455Z,10.19
2023-11-15T14:13:05.527Z,10.22
2023-11-15T14:14:05.658Z,10.22
2023-11-15T14:17:06.304Z,10.17
2023-11-15T14:18:07.476Z,10.14
2023-11-15T14:19:07.392Z,10.10
2023-11-15T14:20:07.470Z,10.07
2023-11-15T14:21:07.504Z,10.07
2023-11-15T14:22:07.599Z,10.06
2023-11-15T14:23:07.658Z,10.04
2023-11-15T14:24:07.825Z,10.04
2023-11-15T14:25:07.849Z,10.04
2023-11-15T14:26:07.926Z,10.04
2023-11-15T14:27:08.055Z,10.04
2023-11-15T14:28:08.083Z,10.03
2023-11-15T14:29:08.116Z,10.01
2023-11-15T14:30:08.262Z,10.03
2023-11-15T14:31:08.354Z,10.04
2023-11-15T14:32:08.404Z,10.06
2023-11-15T14:33:11.019Z,10.04
2023-11-15T14:34:08.563Z,10.03
2023-11-15T14:35:08.597Z,10.01
2023-11-15T14:36:08.797Z,10.04
2023-11-15T14:37:08.789Z,10.04
2023-11-15T14:38:08.842Z,10.06
2023-11-15T14:39:08.936Z,10.06
2023-11-15T14:40:08.985Z,10.09
2023-11-15T14:41:09.040Z,10.10
2023-11-15T14:42:09.231Z,10.10
2023-11-15T14:43:09.227Z,10.14
2023-11-15T14:44:09.334Z,10.12
2023-11-15T14:45:09.487Z,10.12
2023-11-15T14:46:09.529Z,10.12
2023-11-15T14:50:35.726Z,9.91
2023-11-15T14:51:36.523Z,9.86
2023-11-15T14:52:36.701Z,9.85
2023-11-15T14:53:36.632Z,9.86
2023-11-15T14:54:36.708Z,9.88
2023-11-15T14:55:36.822Z,9.89
2023-11-15T14:56:36.880Z,9.89
2023-11-15T14:57:36.966Z,9.91
2023-11-15T14:58:37.036Z,9.93
2023-11-15T14:59:37.129Z,9.91
2023-11-15T15:00:37.201Z,9.93
2023-11-15T15:01:37.335Z,9.94
2023-11-15T15:02:37.505Z,9.94
2023-11-15T15:03:37.560Z,9.94
2023-11-15T15:04:39.102Z,9.96
2023-11-15T15:05:37.630Z,9.94
2023-11-15T15:06:37.836Z,9.96
2023-11-15T15:07:37.854Z,9.96
2023-11-15T15:08:37.933Z,9.94
2023-11-15T15:09:38.020Z,9.94
2023-11-15T15:10:38.141Z,9.91
2023-11-15T15:11:38.165Z,9.89
2023-11-15T15:12:38.265Z,9.88
2023-11-15T15:13:38.333Z,9.86
2023-11-15T15:14:38.508Z,9.85
2023-11-15T15:15:38.493Z,9.83
2023-11-15T15:16:38.647Z,9.83
2023-11-15T15:17:38.736Z,9.82
2023-11-15T15:18:38.852Z,9.81
2023-11-15T15:19:38.793Z,9.78
2023-11-15T15:20:38.901Z,9.76
2023-11-15T15:21:38.933Z,9.76
2023-11-15T15:22:39.050Z,9.73
2023-11-15T15:23:39.089Z,9.71
2023-11-15T15:24:39.280Z,9.68
2023-11-15T15:25:39.370Z,9.68
2023-11-15T15:26:39.346Z,9.68
2023-11-15T15:27:39.474Z,9.66
2023-11-15T15:28:39.566Z,9.66
2023-11-15T15:29:39.676Z,9.66
2023-11-15T15:30:39.684Z,9.67
2023-11-15T15:31:39.800Z,9.67
2023-11-15T15:32:39.953Z,9.66
2023-11-15T15:33:40.003Z,9.66
2023-11-15T15:34:40.048Z,9.67
2023-11-15T15:35:40.230Z,9.66
2023-11-15T15:36:40.252Z,9.64
2023-11-15T15:37:40.329Z,9.64
2023-11-15T15:38:40.409Z,9.63
2023-11-15T15:39:40.565Z,9.64
2023-11-15T15:40:40.568Z,9.61
2023-11-15T15:41:40.703Z,9.61
2023-11-15T15:42:40.766Z,9.60
2023-11-15T15:43:40.827Z,9.58
2023-11-15T15:44:40.930Z,9.57
2023-11-15T15:45:41.000Z,9.56
2023-11-15T15:46:41.118Z,9.52
2023-11-15T15:47:41.234Z,9.49
2023-11-15T15:48:41.335Z,9.48
2023-11-15T15:49:41.362Z,9.46
2023-11-15T15:50:41.393Z,9.46
2023-11-15T15:51:41.514Z,9.45
2023-11-15T15:52:41.667Z,9.43
2023-11-15T15:53:41.670Z,9.45
2023-11-15T15:54:41.781Z,9.45
2023-11-15T15:55:41.841Z,9.42
2023-11-15T15:56:41.938Z,9.40
2023-11-15T15:57:42.039Z,9.42
2023-11-15T15:58:42.132Z,9.40
2023-11-15T15:59:42.221Z,9.42
2023-11-15T16:00:42.363Z,9.39
2023-11-15T16:01:42.420Z,9.40
2023-11-15T16:02:42.560Z,9.42
2023-11-15T16:03:42.637Z,9.42
2023-11-15T16:04:43.008Z,9.43
2023-11-15T16:05:42.753Z,9.45
2023-11-15T16:06:42.838Z,9.45
2023-11-15T16:07:42.940Z,9.43
2023-11-15T16:08:42.973Z,9.45
2023-11-15T16:09:43.074Z,9.45
2023-11-15T16:10:43.192Z,9.43
2023-11-15T16:11:43.212Z,9.43
2023-11-15T16:12:43.312Z,9.43
2023-11-15T16:13:43.389Z,9.45
2023-11-15T16:14:43.557Z,9.45
2023-11-15T16:15:43.668Z,9.46
2023-11-15T16:16:43.713Z,9.48
2023-11-15T16:17:43.778Z,9.49
2023-11-15T16:18:43.942Z,9.48
2023-11-15T16:19:43.952Z,9.49
2023-11-15T16:20:44.064Z,9.49
2023-11-15T16:21:44.184Z,9.50
2023-11-15T16:22:44.248Z,9.50
2023-11-15T16:23:44.350Z,9.52
2023-11-15T16:24:44.402Z,9.52
2023-11-15T16:25:44.469Z,9.53
2023-11-15T16:26:44.709Z,9.53
2023-11-15T16:27:44.667Z,9.56
2023-11-15T16:28:44.742Z,9.56
2023-11-15T16:29:45.022Z,9.56
2023-11-15T16:30:45.021Z,9.53
2023-11-15T16:31:44.989Z,9.53
2023-11-15T16:32:45.136Z,9.53
2023-11-15T16:33:45.234Z,9.52
2023-11-15T16:34:45.238Z,9.56
2023-11-15T16:35:45.380Z,9.56
2023-11-15T16:36:45.406Z,9.57
2023-11-15T16:37:45.494Z,9.56
2023-11-15T16:38:45.592Z,9.58
2023-11-15T16:39:45.644Z,9.60
2023-11-15T16:40:45.737Z,9.58
2023-11-15T16:41:45.834Z,9.61
2023-11-15T16:42:45.954Z,9.61
2023-11-15T16:43:45.989Z,9.61
2023-11-15T16:44:46.105Z,9.61
2023-11-15T16:45:46.164Z,9.61
2023-11-15T16:46:46.288Z,9.63
2023-11-15T16:47:46.456Z,9.63
2023-11-15T16:48:46.522Z,9.64
2023-11-15T16:49:46.517Z,9.66
2023-11-15T16:50:46.625Z,9.63
2023-11-15T16:51:46.666Z,9.64
2023-11-15T16:52:46.791Z,9.66
2023-11-15T16:53:46.844Z,9.63
2023-11-15T16:54:46.939Z,9.64
2023-11-15T16:55:47.036Z,9.64
2023-11-15T16:56:47.145Z,9.63
2023-11-15T16:57:47.240Z,9.64
2023-11-15T16:58:47.295Z,9.64
2023-11-15T16:59:47.422Z,9.64
2023-11-15T17:00:47.625Z,9.63
2023-11-15T17:01:47.615Z,9.60
2023-11-15T17:02:47.762Z,9.60
2023-11-15T17:03:47.866Z,9.60
2023-11-15T17:04:47.819Z,9.60
2023-11-15T17:05:47.947Z,9.57
2023-11-15T17:06:48.005Z,9.58
2023-11-15T17:07:48.113Z,9.58
2023-11-15T17:08:50.286Z,9.57
2023-11-15T17:09:48.169Z,9.58
2023-11-15T17:10:48.270Z,9.57
2023-11-15T17:11:48.387Z,9.57
2023-11-15T17:12:48.453Z,9.57
2023-11-15T17:13:48.492Z,9.57
2023-11-15T17:14:48.666Z,9.57
2023-11-15T17:15:48.665Z,9.56
2023-11-15T17:16:48.810Z,9.56
2023-11-15T17:17:48.890Z,9.56
2023-11-15T17:18:48.957Z,9.56
2023-11-15T17:19:48.970Z,9.56
2023-11-15T17:20:49.097Z,9.53
2023-11-15T17:21:49.128Z,9.56
2023-11-15T17:22:49.246Z,9.56
2023-11-15T17:23:49.297Z,9.56
2023-11-15T17:24:49.382Z,9.56
2023-11-15T17:25:49.449Z,9.57
2023-11-15T17:26:49.556Z,9.53
2023-11-15T17:27:50.418Z,9.56
2023-11-15T17:28:49.701Z,9.57
2023-11-15T17:29:49.791Z,9.57
2023-11-15T17:30:49.941Z,9.57
2023-11-15T17:31:49.925Z,9.57
2023-11-15T17:32:50.135Z,9.57
2023-11-15T17:33:50.119Z,9.57
2023-11-15T17:34:50.166Z,9.57
2023-11-15T17:35:50.281Z,9.57
2023-11-15T17:36:50.348Z,9.57
2023-11-15T17:37:50.501Z,9.57
2023-11-15T17:38:50.526Z,9.57
2023-11-15T17:39:50.588Z,9.57
2023-11-15T17:40:50.647Z,9.57
2023-11-15T17:41:50.785Z,9.56
2023-11-15T17:42:50.841Z,9.56
2023-11-15T17:43:50.916Z,9.53
2023-11-15T17:44:51.049Z,9.56
2023-11-15T17:45:51.087Z,9.56
2023-11-15T17:46:51.188Z,9.56
2023-11-15T17:47:51.292Z,9.56
2023-11-15T17:48:51.364Z,9.56
2023-11-15T17:49:51.369Z,9.57
2023-11-15T17:50:51.468Z,9.56
2023-11-15T17:51:51.548Z,9.58
2023-11-15T17:52:51.613Z,9.60
2023-11-15T17:53:51.678Z,9.60
2023-11-15T17:54:51.750Z,9.60
2023-11-15T17:55:51.831Z,9.60
2023-11-15T17:56:51.969Z,9.60
2023-11-15T17:58:14.693Z,9.61
2023-11-15T17:59:04.440Z,9.61
2023-11-15T17:59:52.203Z,9.60
2023-11-15T18:00:52.310Z,9.61
2023-11-15T18:01:53.418Z,9.60
2023-11-15T18:02:52.496Z,9.60
2023-11-15T18:03:52.552Z,9.60
2023-11-15T18:04:52.556Z,9.60
2023-11-15T18:05:52.683Z,9.60
2023-11-15T18:06:52.762Z,9.60
2023-11-15T18:07:52.850Z,9.60
2023-11-15T18:08:53.115Z,9.58
2023-11-15T18:09:52.999Z,9.58
2023-11-15T18:10:53.091Z,9.58
2023-11-15T18:11:53.246Z,9.60
2023-11-15T18:12:53.311Z,9.58
2023-11-15T18:13:55.962Z,9.56
2023-11-15T18:14:53.440Z,9.56
2023-11-15T18:15:53.555Z,9.56
2023-11-15T18:16:53.606Z,9.57
2023-11-15T18:17:53.876Z,9.53
2023-11-15T18:18:53.859Z,9.53
2023-11-15T18:19:53.879Z,9.56
2023-11-15T18:20:53.956Z,9.56
2023-11-15T18:21:54.003Z,9.56
2023-11-15T18:22:54.069Z,9.56
2023-11-15T18:23:54.191Z,9.56
2023-11-15T18:24:54.230Z,9.57
2023-11-15T18:25:57.363Z,9.57
2023-11-15T18:26:54.434Z,9.57
2023-11-15T18:27:54.495Z,9.60
2023-11-15T18:28:54.598Z,9.58
2023-11-15T18:29:54.710Z,9.57
2023-11-15T18:30:54.950Z,9.58
2023-11-15T18:31:54.877Z,9.57
2023-11-15T18:32:55.037Z,9.56
2023-11-15T18:33:55.101Z,9.56
2023-11-15T18:34:55.114Z,9.56
2023-11-15T18:35:55.247Z,9.52
2023-11-15T18:36:55.264Z,9.52
2023-11-15T18:37:58.525Z,9.52
2023-11-15T18:38:55.506Z,9.50
2023-11-15T18:39:55.530Z,9.50
2023-11-15T18:40:55.626Z,9.49
2023-11-15T18:41:55.730Z,9.49
2023-11-15T18:42:55.764Z,9.49
2023-11-15T18:43:57.621Z,9.50
2023-11-15T18:44:55.983Z,9.50
2023-11-15T18:45:56.140Z,9.52
2023-11-15T18:46:58.813Z,9.53
2023-11-15T18:47:56.267Z,9.56
2023-11-15T18:48:56.323Z,9.56
2023-11-15T18:49:56.434Z,9.57
2023-11-15T18:50:56.436Z,9.58
2023-11-15T18:51:56.503Z,9.61
2023-11-15T18:52:58.940Z,9.61
2023-11-15T18:53:56.713Z,9.63
2023-11-15T18:54:56.771Z,9.64
2023-11-15T18:55:56.859Z,9.63
2023-11-15T18:56:56.957Z,9.61
2023-11-15T18:57:57.043Z,9.63
2023-11-15T18:58:57.192Z,9.61
2023-11-15T18:59:57.422Z,9.63
2023-11-15T19:00:57.342Z,9.61
2023-11-15T19:01:57.381Z,9.63
2023-11-15T19:02:59.780Z,9.61
2023-11-15T19:03:57.721Z,9.58
2023-11-15T19:04:57.614Z,9.57
2023-11-15T19:05:57.750Z,9.57
2023-11-15T19:06:57.798Z,9.58
2023-11-15T19:07:57.884Z,9.57
2023-11-15T19:08:57.998Z,9.57
2023-11-15T19:09:58.038Z,9.53
2023-11-15T19:10:58.118Z,9.53
2023-11-15T19:11:58.573Z,9.56
2023-11-15T19:12:58.281Z,9.56
2023-11-15T19:13:58.564Z,9.56
2023-11-15T19:14:58.544Z,9.56
2023-11-15T19:15:58.590Z,9.57
2023-11-15T19:16:58.586Z,9.57
2023-11-15T19:17:58.865Z,9.53
2023-11-15T19:18:58.769Z,9.56